Time;durP1;ratioP1;P1;durP2;ratioP2;P2;SDS_P1;SDS_P2;PMS_P1;PMS_P2;Temp;Humidity;BMP_temperature;BMP_pressure;BME280_temperature;BME280_humidity;BME280_pressure;Samples;Min_cycle;Max_cycle;Signal;HPM_P1;HPM_P2
2021/12/15 00:00:53;;;;;;;48.53;31.50;;;;;;;;;;5324388;28;20098;-70
2021/12/15 00:03:24;;;;;;;46.95;29.58;;;;;;;;;;5327011;28;20032;-70
2021/12/15 00:05:55;;;;;;;46.13;29.42;;;;;;;;;;5326625;28;20311;-70
2021/12/15 00:08:26;;;;;;;48.38;29.48;;;;;;;;;;5326249;28;20024;-71
2021/12/15 00:10:58;;;;;;;44.25;28.17;;;;;;;;;;5326478;28;20025;-70
2021/12/15 00:13:29;;;;;;;43.22;29.40;;;;;;;;;;5327063;28;20019;-70
2021/12/15 00:16:00;;;;;;;41.35;28.58;;;;;;;;;;5325581;28;20028;-70
2021/12/15 00:18:31;;;;;;;47.10;30.48;;;;;;;;;;5326915;28;20072;-70
2021/12/15 00:21:03;;;;;;;50.22;28.98;;;;;;;;;;5326087;28;20272;-70
2021/12/15 00:23:35;;;;;;;45.92;29.90;;;;;;;;;;5326157;28;20032;-71
2021/12/15 00:26:06;;;;;;;44.72;29.70;;;;;;;;;;5326137;27;20026;-70
2021/12/15 00:28:38;;;;;;;48.83;30.73;;;;;;;;;;5325339;28;20034;-71
2021/12/15 00:31:10;;;;;;;46.13;29.80;;;;;;;;;;5326622;28;20012;-71
2021/12/15 00:33:41;;;;;;;48.95;30.05;;;;;;;;;;5325974;28;20018;-70
2021/12/15 00:36:13;;;;;;;43.47;28.85;;;;;;;;;;5325891;28;20027;-70
2021/12/15 00:38:44;;;;;;;45.58;30.70;;;;;;;;;;5325820;27;20023;-71
2021/12/15 00:41:15;;;;;;;44.33;28.90;;;;;;;;;;5326366;28;20390;-70
2021/12/15 00:43:46;;;;;;;43.67;29.48;;;;;;;;;;5324672;28;20056;-70
2021/12/15 00:46:18;;;;;;;44.25;29.35;;;;;;;;;;5326462;28;20027;-70
2021/12/15 00:48:49;;;;;;;43.72;28.63;;;;;;;;;;5325965;28;20027;-70
2021/12/15 00:51:21;;;;;;;46.38;29.33;;;;;;;;;;5325437;28;20027;-70
2021/12/15 00:53:52;;;;;;;45.83;29.40;;;;;;;;;;5325510;28;20024;-70
2021/12/15 00:56:23;;;;;;;43.42;28.10;;;;;;;;;;5326096;28;20412;-70
2021/12/15 00:58:55;;;;;;;47.13;29.42;;;;;;;;;;5324774;28;20016;-70
2021/12/15 01:01:26;;;;;;;42.45;27.27;;;;;;;;;;5326114;28;20024;-70
2021/12/15 01:03:58;;;;;;;44.47;27.92;;;;;;;;;;5324585;28;20111;-70
2021/12/15 01:06:29;;;;;;;41.50;26.33;;;;;;;;;;5324921;28;20011;-70
2021/12/15 01:09:03;;;;;;;45.00;28.55;;;;;;;;;;5325267;28;20040;-70
2021/12/15 01:14:33;;;;;;;46.05;30.23;;;;;;;;;;5325859;28;20027;-70
2021/12/15 01:19:58;;;;;;;41.38;26.73;;;;;;;;;;5324483;28;20036;-69
2021/12/15 01:22:31;;;;;;;42.65;28.05;;;;;;;;;;5325647;28;20482;-70
2021/12/15 01:25:23;;;;;;;44.22;28.75;;;;;;;;;;5324118;28;20026;-70
2021/12/15 01:27:54;;;;;;;42.90;27.08;;;;;;;;;;5324840;28;20413;-70
2021/12/15 01:30:27;;;;;;;44.08;28.90;;;;;;;;;;5325475;28;20027;-70
2021/12/15 01:32:59;;;;;;;49.40;28.63;;;;;;;;;;5324491;28;20020;-70
2021/12/15 01:35:32;;;;;;;44.25;27.90;;;;;;;;;;5325332;28;20008;-70
2021/12/15 01:38:03;;;;;;;43.05;27.35;;;;;;;;;;5324612;28;20024;-70
2021/12/15 01:40:38;;;;;;;45.33;29.02;;;;;;;;;;5324257;28;20064;-70
2021/12/15 01:43:16;;;;;;;46.00;28.50;;;;;;;;;;5325047;28;20104;-69
2021/12/15 01:48:41;;;;;;;44.80;28.60;;;;;;;;;;5324940;28;20266;-70
2021/12/15 01:51:12;;;;;;;49.85;29.85;;;;;;;;;;5325184;28;20359;-69
2021/12/15 01:53:43;;;;;;;45.25;26.95;;;;;;;;;;5323662;28;20084;-69
2021/12/15 01:56:14;;;;;;;46.62;28.34;;;;;;;;;;5324967;28;20391;-70
2021/12/15 01:58:46;;;;;;;49.53;29.83;;;;;;;;;;5324282;28;20346;-69
2021/12/15 02:01:17;;;;;;;45.72;28.27;;;;;;;;;;5324303;28;20081;-69
2021/12/15 02:03:48;;;;;;;45.00;27.98;;;;;;;;;;5324194;28;20028;-69
2021/12/15 02:06:19;;;;;;;50.42;29.52;;;;;;;;;;5324803;28;20100;-69
2021/12/15 02:08:51;;;;;;;52.95;30.17;;;;;;;;;;5323335;28;20124;-70
2021/12/15 02:11:24;;;;;;;46.55;28.85;;;;;;;;;;5324726;28;20022;-70
2021/12/15 02:13:55;;;;;;;50.47;30.80;;;;;;;;;;5323329;28;20090;-70
2021/12/15 02:16:26;;;;;;;49.92;30.90;;;;;;;;;;5324521;28;20111;-69
2021/12/15 02:18:57;;;;;;;52.30;30.52;;;;;;;;;;5323863;28;20030;-70
2021/12/15 02:21:29;;;;;;;45.97;28.90;;;;;;;;;;5323719;28;20028;-69
2021/12/15 02:24:01;;;;;;;49.00;30.20;;;;;;;;;;5323842;27;20114;-69
2021/12/15 02:26:35;;;;;;;50.85;28.85;;;;;;;;;;5324573;28;20060;-69
2021/12/15 02:29:14;;;;;;;50.28;30.27;;;;;;;;;;5323483;28;20028;-69
2021/12/15 02:37:17;;;;;;;47.72;28.48;;;;;;;;;;5323255;28;20174;-69
2021/12/15 02:39:59;;;;;;;50.28;28.67;;;;;;;;;;5323801;28;20032;-70
2021/12/15 02:42:32;;;;;;;49.60;28.70;;;;;;;;;;5323147;28;20115;-69
2021/12/15 02:45:05;;;;;;;48.30;30.27;;;;;;;;;;5323444;28;20031;-69
2021/12/15 02:47:36;;;;;;;48.63;29.27;;;;;;;;;;5324311;28;20019;-69
2021/12/15 02:50:11;;;;;;;46.85;29.13;;;;;;;;;;5323210;28;20022;-69
2021/12/15 02:52:42;;;;;;;46.65;27.48;;;;;;;;;;5323592;28;20382;-69
2021/12/15 02:55:14;;;;;;;46.53;28.10;;;;;;;;;;5324104;28;20019;-70
2021/12/15 02:57:46;;;;;;;52.95;30.80;;;;;;;;;;5322922;28;20061;-70
2021/12/15 03:00:22;;;;;;;48.83;28.20;;;;;;;;;;5324196;28;20438;-69
2021/12/15 03:05:56;;;;;;;44.05;27.83;;;;;;;;;;5323548;28;20050;-69
2021/12/15 03:08:51;;;;;;;43.72;28.55;;;;;;;;;;5323973;28;20107;-70
2021/12/15 03:17:03;;;;;;;48.78;28.50;;;;;;;;;;5323510;28;20055;-69
2021/12/15 03:19:34;;;;;;;48.47;28.52;;;;;;;;;;5322915;28;20052;-70
2021/12/15 03:22:05;;;;;;;50.05;28.52;;;;;;;;;;5323042;28;20040;-69
2021/12/15 03:24:36;;;;;;;47.70;28.08;;;;;;;;;;5322676;28;20632;-70
2021/12/15 03:27:14;;;;;;;48.30;28.45;;;;;;;;;;5323667;28;20022;-69
2021/12/15 03:35:47;;;;;;;50.92;29.30;;;;;;;;;;5327774;28;20034;-69
2021/12/15 03:38:19;;;;;;;51.08;29.30;;;;;;;;;;5327009;28;20035;-70
2021/12/15 03:40:50;;;;;;;47.20;28.63;;;;;;;;;;5326970;28;20008;-69
2021/12/15 03:43:21;;;;;;;44.17;26.90;;;;;;;;;;5327445;28;20097;-69
2021/12/15 03:45:54;;;;;;;44.25;27.23;;;;;;;;;;5326159;28;20064;-70
2021/12/15 03:48:27;;;;;;;42.97;27.27;;;;;;;;;;5327604;28;20374;-69
2021/12/15 03:50:58;;;;;;;44.67;26.95;;;;;;;;;;5326949;28;20027;-69
2021/12/15 03:53:30;;;;;;;41.15;25.45;;;;;;;;;;5326588;28;20019;-70
2021/12/15 03:56:02;;;;;;;42.47;26.25;;;;;;;;;;5326927;28;20043;-70
2021/12/15 03:58:33;;;;;;;40.65;25.77;;;;;;;;;;5327468;27;20070;-70
2021/12/15 04:01:11;;;;;;;44.63;24.52;;;;;;;;;;5325963;28;20096;-70
2021/12/15 04:03:44;;;;;;;44.10;25.58;;;;;;;;;;5326437;28;20027;-70
2021/12/15 04:06:17;;;;;;;43.10;25.50;;;;;;;;;;5327159;28;20114;-70
2021/12/15 04:08:48;;;;;;;44.38;25.83;;;;;;;;;;5325876;28;20027;-70
2021/12/15 04:11:20;;;;;;;43.60;26.48;;;;;;;;;;5327054;28;20054;-70
2021/12/15 04:13:52;;;;;;;42.75;25.42;;;;;;;;;;5325604;28;20016;-70
2021/12/15 04:16:42;;;;;;;38.95;25.20;;;;;;;;;;5326898;28;20012;-70
2021/12/15 04:19:15;;;;;;;43.65;25.65;;;;;;;;;;5327079;28;20012;-70
2021/12/15 04:21:47;;;;;;;35.45;23.77;;;;;;;;;;5325710;28;20015;-70
2021/12/15 04:24:19;;;;;;;39.65;25.67;;;;;;;;;;5326705;28;20035;-70
2021/12/15 04:26:50;;;;;;;42.20;25.45;;;;;;;;;;5325959;28;20379;-70
2021/12/15 04:29:21;;;;;;;38.97;24.85;;;;;;;;;;5326151;27;20039;-70
2021/12/15 04:31:56;;;;;;;41.95;24.05;;;;;;;;;;5326068;28;20043;-70
2021/12/15 04:34:27;;;;;;;41.47;25.08;;;;;;;;;;5326553;28;20069;-70
2021/12/15 04:36:58;;;;;;;38.65;24.92;;;;;;;;;;5324997;28;20471;-70
2021/12/15 04:39:30;;;;;;;39.53;22.95;;;;;;;;;;5326352;28;20439;-70
2021/12/15 04:42:01;;;;;;;40.88;25.02;;;;;;;;;;5324742;28;20432;-70
2021/12/15 04:44:33;;;;;;;41.10;23.70;;;;;;;;;;5326631;28;20414;-70
2021/12/15 04:47:09;;;;;;;40.67;24.25;;;;;;;;;;5325868;28;20039;-70
2021/12/15 04:49:50;;;;;;;37.58;22.30;;;;;;;;;;5324782;28;20437;-71
2021/12/15 04:52:22;;;;;;;40.80;24.73;;;;;;;;;;5326432;28;20408;-70
2021/12/15 04:54:54;;;;;;;39.25;24.52;;;;;;;;;;5325824;28;20011;-70
2021/12/15 04:57:25;;;;;;;35.28;23.02;;;;;;;;;;5325553;28;20019;-70
2021/12/15 04:59:57;;;;;;;36.17;22.15;;;;;;;;;;5325344;28;20380;-70
2021/12/15 05:02:28;;;;;;;38.47;23.02;;;;;;;;;;5326108;28;20100;-70
2021/12/15 05:05:00;;;;;;;36.22;22.50;;;;;;;;;;5324669;28;20027;-70
2021/12/15 05:07:31;;;;;;;34.88;22.65;;;;;;;;;;5325951;28;20024;-70
2021/12/15 05:10:03;;;;;;;38.40;23.27;;;;;;;;;;5324469;28;20055;-70
2021/12/15 05:12:35;;;;;;;39.42;24.15;;;;;;;;;;5325626;28;20258;-70
2021/12/15 05:15:07;;;;;;;36.28;23.48;;;;;;;;;;5325497;27;20370;-70
2021/12/15 05:17:38;;;;;;;38.70;23.42;;;;;;;;;;5324307;28;20024;-70
2021/12/15 05:20:09;;;;;;;36.92;22.23;;;;;;;;;;5325754;28;20462;-70
2021/12/15 05:22:41;;;;;;;34.28;21.38;;;;;;;;;;5325070;28;20024;-70
2021/12/15 05:25:12;;;;;;;36.78;22.15;;;;;;;;;;5324714;28;20074;-70
2021/12/15 05:27:43;;;;;;;34.90;21.63;;;;;;;;;;5324991;28;20045;-70
2021/12/15 05:30:15;;;;;;;40.15;21.83;;;;;;;;;;5325508;28;20026;-70
2021/12/15 05:32:47;;;;;;;35.88;22.13;;;;;;;;;;5324038;28;20019;-70
2021/12/15 05:35:23;;;;;;;39.40;24.40;;;;;;;;;;5325281;28;20015;-70
2021/12/15 05:37:59;;;;;;;37.58;23.40;;;;;;;;;;5323722;28;20374;-70
2021/12/15 05:40:31;;;;;;;37.47;22.30;;;;;;;;;;5325194;28;20383;-70
2021/12/15 05:43:03;;;;;;;36.88;22.75;;;;;;;;;;5324381;28;20052;-70
2021/12/15 05:45:36;;;;;;;37.08;23.30;;;;;;;;;;5324292;27;20023;-70
2021/12/15 05:48:09;;;;;;;36.53;22.50;;;;;;;;;;5324677;28;20363;-70
2021/12/15 05:50:41;;;;;;;36.42;22.42;;;;;;;;;;5324485;28;20487;-71
2021/12/15 05:53:12;;;;;;;35.35;21.13;;;;;;;;;;5323715;28;20032;-70
2021/12/15 05:55:44;;;;;;;41.60;24.27;;;;;;;;;;5324358;28;20370;-70
2021/12/15 05:58:15;;;;;;;41.75;23.58;;;;;;;;;;5324918;27;20024;-70
2021/12/15 06:00:47;;;;;;;41.38;24.75;;;;;;;;;;5323389;28;20117;-70
2021/12/15 06:03:19;;;;;;;37.30;22.65;;;;;;;;;;5324817;28;20296;-70
2021/12/15 06:05:50;;;;;;;43.90;24.17;;;;;;;;;;5324118;28;20102;-70
2021/12/15 06:08:21;;;;;;;42.60;24.17;;;;;;;;;;5323961;28;20103;-70
2021/12/15 06:10:52;;;;;;;41.20;25.33;;;;;;;;;;5324047;28;20374;-70
2021/12/15 06:13:26;;;;;;;39.63;23.13;;;;;;;;;;5324025;28;20039;-70
2021/12/15 06:15:58;;;;;;;42.10;23.88;;;;;;;;;;5323939;28;20020;-70
2021/12/15 06:18:29;;;;;;;40.92;24.05;;;;;;;;;;5324538;28;20051;-69
2021/12/15 06:21:00;;;;;;;42.08;24.92;;;;;;;;;;5322915;28;20471;-70
2021/12/15 06:23:32;;;;;;;39.63;25.10;;;;;;;;;;5324286;28;20387;-70
2021/12/15 06:26:04;;;;;;;41.25;24.13;;;;;;;;;;5324045;28;20100;-70
2021/12/15 06:28:37;;;;;;;46.60;26.45;;;;;;;;;;5323947;28;20023;-70
2021/12/15 06:31:10;;;;;;;45.03;25.23;;;;;;;;;;5324198;28;20107;-70
2021/12/15 06:33:42;;;;;;;44.30;25.60;;;;;;;;;;5323714;28;20011;-70
2021/12/15 06:36:20;;;;;;;47.83;27.08;;;;;;;;;;5323666;28;20445;-70
2021/12/15 06:38:52;;;;;;;45.60;25.35;;;;;;;;;;5323566;28;20031;-70
2021/12/15 06:41:24;;;;;;;46.83;25.35;;;;;;;;;;5323305;28;20088;-70
2021/12/15 06:43:57;;;;;;;46.80;26.67;;;;;;;;;;5323061;28;20059;-70
2021/12/15 06:46:59;;;;;;;46.60;25.80;;;;;;;;;;5324080;28;20322;-71
2021/12/15 07:00:37;;;;;;;47.20;27.42;;;;;;;;;;5324195;28;20554;-70
2021/12/15 07:03:08;;;;;;;49.10;28.38;;;;;;;;;;5322881;28;20032;-70
2021/12/15 07:05:39;;;;;;;50.42;28.67;;;;;;;;;;5326853;28;20084;-70
2021/12/15 07:08:11;;;;;;;47.70;27.55;;;;;;;;;;5328159;28;20355;-70
2021/12/15 07:10:44;;;;;;;52.97;27.73;;;;;;;;;;5326674;28;20411;-71
2021/12/15 07:13:16;;;;;;;52.10;27.85;;;;;;;;;;5327916;28;20023;-71
2021/12/15 07:15:49;;;;;;;49.58;27.27;;;;;;;;;;5327229;28;20056;-71
2021/12/15 07:18:27;;;;;;;52.05;28.15;;;;;;;;;;5327374;28;20030;-70
2021/12/15 07:21:05;;;;;;;55.75;29.20;;;;;;;;;;5327312;28;20011;-70
2021/12/15 07:23:36;;;;;;;50.60;27.80;;;;;;;;;;5326887;28;20090;-71
2021/12/15 07:26:07;;;;;;;51.28;27.23;;;;;;;;;;5327572;28;20475;-70
2021/12/15 07:28:40;;;;;;;49.58;27.42;;;;;;;;;;5327232;28;20091;-71
2021/12/15 07:31:12;;;;;;;50.83;28.23;;;;;;;;;;5327135;28;20050;-71
2021/12/15 07:33:43;;;;;;;50.50;27.67;;;;;;;;;;5327088;28;20073;-71
2021/12/15 07:36:16;;;;;;;51.92;28.23;;;;;;;;;;5327741;28;20355;-70
2021/12/15 07:38:47;;;;;;;53.33;29.58;;;;;;;;;;5326579;28;20023;-71
2021/12/15 07:41:28;;;;;;;51.25;28.52;;;;;;;;;;5327796;28;20035;-70
2021/12/15 07:44:00;;;;;;;50.08;28.33;;;;;;;;;;5326753;28;20479;-70
2021/12/15 07:46:32;;;;;;;55.03;28.98;;;;;;;;;;5326718;27;20520;-70
2021/12/15 07:49:03;;;;;;;55.13;29.80;;;;;;;;;;5326630;28;20055;-70
2021/12/15 07:51:34;;;;;;;57.15;30.70;;;;;;;;;;5326567;28;20273;-70
2021/12/15 07:54:05;;;;;;;52.05;28.13;;;;;;;;;;5326638;28;20019;-70
2021/12/15 07:56:36;;;;;;;51.85;27.73;;;;;;;;;;5326942;28;20024;-70
2021/12/15 07:59:08;;;;;;;59.45;30.98;;;;;;;;;;5325846;28;20367;-70
2021/12/15 08:01:39;;;;;;;55.35;29.90;;;;;;;;;;5326410;28;20117;-70
2021/12/15 08:04:10;;;;;;;58.97;29.52;;;;;;;;;;5327198;28;20023;-70
2021/12/15 08:06:41;;;;;;;55.25;28.83;;;;;;;;;;5325686;28;20016;-71
2021/12/15 08:09:13;;;;;;;57.68;30.56;;;;;;;;;;5327090;28;20156;-71
2021/12/15 08:11:44;;;;;;;56.28;29.08;;;;;;;;;;5326352;28;20015;-70
2021/12/15 08:14:15;;;;;;;55.47;30.27;;;;;;;;;;5326010;28;20024;-70
2021/12/15 08:16:46;;;;;;;60.33;31.58;;;;;;;;;;5325875;28;20024;-71
2021/12/15 08:19:19;;;;;;;54.22;30.13;;;;;;;;;;5327031;28;20504;-70
2021/12/15 08:21:50;;;;;;;57.70;31.27;;;;;;;;;;5325102;28;20011;-71
2021/12/15 08:24:21;;;;;;;58.05;31.65;;;;;;;;;;5326524;28;20032;-71
2021/12/15 08:26:53;;;;;;;54.50;28.77;;;;;;;;;;5325584;28;20020;-70
2021/12/15 08:29:24;;;;;;;57.03;32.25;;;;;;;;;;5326867;28;20051;-70
2021/12/15 08:31:55;;;;;;;52.40;30.30;;;;;;;;;;5325730;28;20034;-70
2021/12/15 08:34:26;;;;;;;57.95;31.90;;;;;;;;;;5325831;28;20023;-71
2021/12/15 08:36:58;;;;;;;57.75;30.55;;;;;;;;;;5326118;28;20023;-71
2021/12/15 08:39:29;;;;;;;59.98;31.94;;;;;;;;;;5326459;28;20043;-73
2021/12/15 08:42:00;;;;;;;54.25;30.92;;;;;;;;;;5324884;28;20011;-70
2021/12/15 08:44:31;;;;;;;52.45;31.35;;;;;;;;;;5326302;28;20269;-70
2021/12/15 08:47:03;;;;;;;60.22;31.50;;;;;;;;;;5325658;28;20375;-70
2021/12/15 08:49:35;;;;;;;59.70;31.45;;;;;;;;;;5325752;28;20514;-70
2021/12/15 08:52:06;;;;;;;58.65;31.88;;;;;;;;;;5325738;28;20106;-70
2021/12/15 08:54:38;;;;;;;58.88;31.80;;;;;;;;;;5325800;28;20019;-71
2021/12/15 08:57:10;;;;;;;56.63;32.08;;;;;;;;;;5325365;28;20015;-70
2021/12/15 08:59:41;;;;;;;51.60;31.05;;;;;;;;;;5325423;28;20020;-71
2021/12/15 09:02:12;;;;;;;56.50;32.50;;;;;;;;;;5325359;28;20020;-71
2021/12/15 09:04:43;;;;;;;55.25;30.70;;;;;;;;;;5325597;28;20028;-71
2021/12/15 09:07:15;;;;;;;50.85;30.98;;;;;;;;;;5325787;28;20015;-71
2021/12/15 09:09:46;;;;;;;54.20;31.77;;;;;;;;;;5324178;27;20031;-70
2021/12/15 09:12:19;;;;;;;55.30;31.63;;;;;;;;;;5325817;28;20023;-70
2021/12/15 09:14:50;;;;;;;53.58;30.90;;;;;;;;;;5325283;28;20043;-70
2021/12/15 09:17:21;;;;;;;50.13;30.60;;;;;;;;;;5324806;28;20028;-70
2021/12/15 09:19:53;;;;;;;53.10;32.85;;;;;;;;;;5325079;28;20459;-72
2021/12/15 09:22:24;;;;;;;52.75;31.02;;;;;;;;;;5325418;28;20202;-75
2021/12/15 09:24:55;;;;;;;54.60;30.48;;;;;;;;;;5324015;28;20023;-69
2021/12/15 09:27:26;;;;;;;50.75;30.65;;;;;;;;;;5324597;28;20012;-70
2021/12/15 09:29:58;;;;;;;55.47;30.63;;;;;;;;;;5323331;28;20022;-73
2021/12/15 09:32:29;;;;;;;49.42;30.08;;;;;;;;;;5324318;28;20023;-71
2021/12/15 09:35:00;;;;;;;53.83;31.23;;;;;;;;;;5324063;28;20266;-71
2021/12/15 09:37:32;;;;;;;50.05;30.25;;;;;;;;;;5324609;28;20098;-71
2021/12/15 09:40:04;;;;;;;49.42;30.33;;;;;;;;;;5324502;28;20015;-71
2021/12/15 09:42:39;;;;;;;54.45;32.53;;;;;;;;;;5324680;28;20039;-72
2021/12/15 10:02:12;;;;;;;48.55;29.88;;;;;;;;;;5324362;28;20027;-72
2021/12/15 10:10:43;;;;;;;51.13;31.15;;;;;;;;;;5324333;28;20142;-71
2021/12/15 10:19:18;;;;;;;49.20;31.23;;;;;;;;;;5323856;28;20106;-70
2021/12/15 10:22:02;;;;;;;50.00;31.55;;;;;;;;;;5324081;28;20008;-72
2021/12/15 10:24:36;;;;;;;49.92;30.83;;;;;;;;;;5324476;28;20367;-71
2021/12/15 10:27:07;;;;;;;46.83;31.17;;;;;;;;;;5323018;28;20019;-71
2021/12/15 10:29:57;;;;;;;51.03;33.03;;;;;;;;;;5323893;28;20039;-73
2021/12/15 10:32:30;;;;;;;49.30;32.08;;;;;;;;;;5324026;28;20031;-71
2021/12/15 10:35:07;;;;;;;47.83;29.25;;;;;;;;;;5321042;28;20039;-71
2021/12/15 10:37:39;;;;;;;47.45;31.33;;;;;;;;;;5322331;28;20134;-73
2021/12/15 10:40:12;;;;;;;47.35;30.67;;;;;;;;;;5323041;28;20031;-77
2021/12/15 10:42:43;;;;;;;48.65;32.30;;;;;;;;;;5321679;28;20051;-72
2021/12/15 10:45:16;;;;;;;51.58;32.22;;;;;;;;;;5323071;28;20027;-72
2021/12/15 10:47:50;;;;;;;49.92;32.33;;;;;;;;;;5321290;28;20015;-72
2021/12/15 10:50:22;;;;;;;49.28;30.98;;;;;;;;;;5322921;28;20035;-72
2021/12/15 10:52:58;;;;;;;49.30;32.03;;;;;;;;;;5322677;28;20494;-71
2021/12/15 10:55:34;;;;;;;48.58;32.17;;;;;;;;;;5322288;28;20032;-72
2021/12/15 10:58:24;;;;;;;47.00;30.92;;;;;;;;;;5322457;28;20030;-73
2021/12/15 11:00:55;;;;;;;46.83;31.67;;;;;;;;;;5322045;28;20584;-73
2021/12/15 11:03:33;;;;;;;50.58;33.40;;;;;;;;;;5322205;28;20043;-73
2021/12/15 11:06:18;;;;;;;49.15;31.45;;;;;;;;;;5322446;28;20482;-73
2021/12/15 11:09:09;;;;;;;51.30;32.65;;;;;;;;;;5321339;28;20019;-72
2021/12/15 11:12:00;;;;;;;49.15;31.92;;;;;;;;;;5322352;28;20458;-72
2021/12/15 11:14:37;;;;;;;48.75;31.58;;;;;;;;;;5322347;28;20102;-71
2021/12/15 11:17:08;;;;;;;50.13;32.60;;;;;;;;;;5321671;28;20406;-71
2021/12/15 11:19:41;;;;;;;47.10;32.92;;;;;;;;;;5322285;28;20023;-72
2021/12/15 11:22:31;;;;;;;49.80;32.65;;;;;;;;;;5322735;28;20030;-71
2021/12/15 11:25:13;;;;;;;45.22;31.17;;;;;;;;;;5322065;28;20026;-72
2021/12/15 11:27:53;;;;;;;45.58;32.08;;;;;;;;;;5321475;28;20039;-71
2021/12/15 11:30:45;;;;;;;45.35;31.63;;;;;;;;;;5322094;28;20015;-72
2021/12/15 11:33:18;;;;;;;45.63;30.23;;;;;;;;;;5321908;28;20027;-71
2021/12/15 11:35:51;;;;;;;46.92;30.98;;;;;;;;;;5321893;28;20126;-72
2021/12/15 11:38:24;;;;;;;43.83;30.38;;;;;;;;;;5322092;28;20066;-72
2021/12/15 11:40:55;;;;;;;45.25;31.02;;;;;;;;;;5321690;28;20099;-73
2021/12/15 11:43:33;;;;;;;44.90;30.33;;;;;;;;;;5322405;28;20565;-71
2021/12/15 11:46:25;;;;;;;41.67;30.73;;;;;;;;;;5322097;28;20508;-72
2021/12/15 11:48:59;;;;;;;40.90;29.63;;;;;;;;;;5307436;28;20040;-72
2021/12/15 11:51:38;;;;;;;41.20;29.25;;;;;;;;;;5324966;28;20023;-71
2021/12/15 11:54:15;;;;;;;39.38;31.17;;;;;;;;;;5325844;28;20126;-71
2021/12/15 11:56:51;;;;;;;40.90;28.38;;;;;;;;;;5325587;28;20107;-71
2021/12/15 11:59:22;;;;;;;37.67;27.90;;;;;;;;;;5325391;28;20023;-71
2021/12/15 12:01:56;;;;;;;37.22;28.55;;;;;;;;;;5325610;28;20489;-71
2021/12/15 12:04:30;;;;;;;41.45;28.90;;;;;;;;;;5319677;28;20032;-71
2021/12/15 12:07:18;;;;;;;44.10;28.65;;;;;;;;;;5323830;28;20031;-70
2021/12/15 12:09:56;;;;;;;37.55;27.10;;;;;;;;;;5303759;28;20158;-71
2021/12/15 12:12:33;;;;;;;38.15;28.17;;;;;;;;;;5307148;28;20020;-71
2021/12/15 12:15:06;;;;;;;38.35;27.40;;;;;;;;;;5302723;28;20019;-71
2021/12/15 12:17:38;;;;;;;36.15;27.55;;;;;;;;;;5302815;28;20044;-72
2021/12/15 12:20:17;;;;;;;35.55;26.17;;;;;;;;;;5302667;28;20522;-71
2021/12/15 12:22:48;;;;;;;;;;;;;;;;;;5302816;28;20107;-72
2021/12/15 12:25:22;;;;;;;36.40;25.45;;;;;;;;;;5303597;28;20049;-71
2021/12/15 12:27:54;;;;;;;36.65;27.50;;;;;;;;;;5302033;28;20391;-71
2021/12/15 12:30:28;;;;;;;32.95;25.88;;;;;;;;;;5304660;28;20027;-69
2021/12/15 12:32:59;;;;;;;37.70;26.38;;;;;;;;;;5323624;28;20098;-70
2021/12/15 12:35:32;;;;;;;37.03;27.15;;;;;;;;;;5324005;28;20095;-70
2021/12/15 12:38:24;;;;;;;37.35;27.23;;;;;;;;;;5323648;28;20489;-70
2021/12/15 12:40:58;;;;;;;35.63;25.38;;;;;;;;;;5322375;28;20517;-70
2021/12/15 12:43:36;;;;;;;38.65;27.02;;;;;;;;;;5323972;28;20126;-70
2021/12/15 12:46:18;;;;;;;33.50;25.83;;;;;;;;;;5325126;28;20015;-74
2021/12/15 13:00:17;;;;;;;30.85;21.85;;;;;;;;;;5325821;28;20394;-70
2021/12/15 13:02:59;;;;;;;35.60;23.27;;;;;;;;;;5324470;28;20029;-71
2021/12/15 13:05:57;;;;;;;31.55;21.05;;;;;;;;;;5325954;28;20516;-70
2021/12/15 13:08:41;;;;;;;28.15;21.13;;;;;;;;;;5320913;28;20027;-70
2021/12/15 13:11:18;;;;;;;29.77;20.95;;;;;;;;;;5325956;28;20038;-70
2021/12/15 13:13:50;;;;;;;28.75;22.23;;;;;;;;;;5325087;28;20030;-70
2021/12/15 13:16:30;;;;;;;28.42;21.52;;;;;;;;;;5324193;28;20466;-70
2021/12/15 13:19:01;;;;;;;27.17;19.88;;;;;;;;;;5324468;28;20051;-70
2021/12/15 13:21:47;;;;;;;31.85;22.38;;;;;;;;;;5325313;28;20031;-70
2021/12/15 13:30:40;;;;;;;25.75;19.83;;;;;;;;;;5324989;28;20035;-70
2021/12/15 13:33:14;;;;;;;24.83;19.15;;;;;;;;;;5325564;28;20067;-70
2021/12/15 13:35:51;;;;;;;25.15;19.75;;;;;;;;;;5324909;28;20019;-70
2021/12/15 13:38:33;;;;;;;24.70;18.83;;;;;;;;;;5324866;28;20362;-70
2021/12/15 13:41:10;;;;;;;26.40;18.67;;;;;;;;;;5324632;28;20016;-70
2021/12/15 13:43:47;;;;;;;27.88;19.60;;;;;;;;;;5323644;28;20056;-71
2021/12/15 13:46:39;;;;;;;22.55;19.13;;;;;;;;;;5325008;28;20019;-70
2021/12/15 13:49:10;;;;;;;23.73;20.25;;;;;;;;;;5324908;28;20012;-70
2021/12/15 13:51:52;;;;;;;25.38;19.85;;;;;;;;;;5323897;28;20031;-70
2021/12/15 13:54:43;;;;;;;28.20;21.55;;;;;;;;;;5325065;28;20026;-70
2021/12/15 13:57:14;;;;;;;26.65;20.75;;;;;;;;;;5324169;28;20073;-70
2021/12/15 14:00:01;;;;;;;28.55;21.80;;;;;;;;;;5324304;28;20059;-70
2021/12/15 14:02:34;;;;;;;33.17;23.77;;;;;;;;;;5324921;28;20362;-70
2021/12/15 14:05:05;;;;;;;27.75;22.60;;;;;;;;;;5323715;28;20640;-70
2021/12/15 14:07:47;;;;;;;28.60;23.65;;;;;;;;;;5324523;28;20110;-70
2021/12/15 14:10:18;;;;;;;30.92;22.98;;;;;;;;;;5324705;28;20322;-70
2021/12/15 14:12:54;;;;;;;30.17;23.13;;;;;;;;;;5323102;28;20023;-70
2021/12/15 14:15:34;;;;;;;29.88;22.38;;;;;;;;;;5324292;28;20051;-71
2021/12/15 14:18:09;;;;;;;26.50;21.40;;;;;;;;;;5323765;28;20032;-71
2021/12/15 14:20:59;;;;;;;29.10;21.98;;;;;;;;;;5323131;28;20020;-70
2021/12/15 14:23:35;;;;;;;28.02;21.52;;;;;;;;;;5324491;28;20497;-71
2021/12/15 14:26:10;;;;;;;26.73;21.90;;;;;;;;;;5323305;28;20535;-70
2021/12/15 14:28:44;;;;;;;26.90;22.05;;;;;;;;;;5323450;28;20016;-69
2021/12/15 14:31:17;;;;;;;28.88;22.52;;;;;;;;;;5324551;28;20046;-74
2021/12/15 14:33:54;;;;;;;26.33;21.40;;;;;;;;;;5321442;28;20023;-70
2021/12/15 14:36:27;;;;;;;27.20;21.92;;;;;;;;;;5323249;28;20027;-70
2021/12/15 14:39:01;;;;;;;28.23;22.33;;;;;;;;;;5322666;28;20098;-70
2021/12/15 14:41:34;;;;;;;29.25;22.95;;;;;;;;;;5322256;28;20030;-69
2021/12/15 14:44:09;;;;;;;28.60;22.65;;;;;;;;;;5321810;28;20047;-69
2021/12/15 14:46:42;;;;;;;32.85;23.90;;;;;;;;;;5321059;28;20020;-70
2021/12/15 14:49:19;;;;;;;29.40;23.23;;;;;;;;;;5322708;28;20030;-70
2021/12/15 14:51:52;;;;;;;28.40;23.33;;;;;;;;;;5322153;28;20016;-71
2021/12/15 14:54:24;;;;;;;30.63;24.05;;;;;;;;;;5322300;28;20027;-70
2021/12/15 14:56:57;;;;;;;34.63;24.00;;;;;;;;;;5322232;28;20052;-71
2021/12/15 14:59:31;;;;;;;32.13;24.65;;;;;;;;;;5322415;28;20471;-71
2021/12/15 15:02:02;;;;;;;28.02;23.50;;;;;;;;;;5321396;28;20417;-71
2021/12/15 15:04:34;;;;;;;31.45;25.05;;;;;;;;;;5322668;28;20035;-71
2021/12/15 15:07:07;;;;;;;30.13;23.85;;;;;;;;;;5322202;28;20045;-71
2021/12/15 15:09:40;;;;;;;29.20;23.45;;;;;;;;;;5321495;28;20020;-70
2021/12/15 15:12:19;;;;;;;26.58;23.33;;;;;;;;;;5322332;28;20024;-69
2021/12/15 15:15:01;;;;;;;30.30;23.90;;;;;;;;;;5321293;28;20019;-70
2021/12/15 15:17:40;;;;;;;28.13;23.92;;;;;;;;;;5322916;28;20015;-70
2021/12/15 15:20:13;;;;;;;28.60;23.48;;;;;;;;;;5322787;28;20027;-69
2021/12/15 15:22:46;;;;;;;31.70;25.42;;;;;;;;;;5321416;28;20020;-70
2021/12/15 15:25:20;;;;;;;31.58;25.02;;;;;;;;;;5323334;28;20071;-71
2021/12/15 15:27:55;;;;;;;27.48;22.80;;;;;;;;;;5326384;28;20069;-70
2021/12/15 15:30:28;;;;;;;27.40;23.45;;;;;;;;;;5326219;28;20035;-69
2021/12/15 15:33:05;;;;;;;28.33;24.65;;;;;;;;;;5326102;28;20020;-70
2021/12/15 15:35:40;;;;;;;30.98;25.13;;;;;;;;;;5326219;27;20015;-71
2021/12/15 15:38:13;;;;;;;31.05;23.63;;;;;;;;;;5326105;27;20038;-71
2021/12/15 15:40:46;;;;;;;32.70;25.35;;;;;;;;;;5326273;28;20064;-72
2021/12/15 15:43:19;;;;;;;30.80;25.23;;;;;;;;;;5325644;28;20092;-72
2021/12/15 15:45:51;;;;;;;29.08;24.08;;;;;;;;;;5325953;28;20602;-73
2021/12/15 15:48:24;;;;;;;31.88;24.42;;;;;;;;;;5326597;28;20366;-73
2021/12/15 15:50:57;;;;;;;29.83;25.20;;;;;;;;;;5324905;27;20123;-72
2021/12/15 15:53:29;;;;;;;30.75;24.92;;;;;;;;;;5325628;28;20352;-72
2021/12/15 15:56:14;;;;;;;31.00;25.33;;;;;;;;;;5325805;27;20057;-73
2021/12/15 15:58:48;;;;;;;32.38;24.58;;;;;;;;;;5325226;28;20030;-72
2021/12/15 16:01:20;;;;;;;33.55;25.38;;;;;;;;;;5326322;28;20073;-72
2021/12/15 16:03:52;;;;;;;33.90;24.90;;;;;;;;;;5324646;28;20030;-71
2021/12/15 16:06:24;;;;;;;32.70;26.50;;;;;;;;;;5325614;28;20020;-72
2021/12/15 16:08:56;;;;;;;31.35;25.98;;;;;;;;;;5325441;28;20031;-72
2021/12/15 16:11:29;;;;;;;33.72;26.02;;;;;;;;;;5325538;28;20016;-72
2021/12/15 16:14:04;;;;;;;35.35;27.20;;;;;;;;;;5325608;28;20022;-72
2021/12/15 16:16:53;;;;;;;34.38;26.20;;;;;;;;;;5326003;28;20049;-72
2021/12/15 16:19:35;;;;;;;34.92;27.52;;;;;;;;;;5324627;28;20027;-72
2021/12/15 16:25:08;;;;;;;32.97;26.63;;;;;;;;;;5324685;28;20036;-75
2021/12/15 16:27:41;;;;;;;32.92;26.77;;;;;;;;;;5325030;28;20442;-71